Time;durP1;ratioP1;P1;durP2;ratioP2;P2;SDS_P1;SDS_P2;PMS_P1;PMS_P2;Temp;Humidity;BMP_temperature;BMP_pressure;BME280_temperature;BME280_humidity;BME280_pressure;Samples;Min_cycle;Max_cycle;Signal;HPM_P1;HPM_P2
2023/07/08 00:00:16;;;;;;;5.10;3.10;;;;;;;20.00;61.25;101448.78;4997664;28;20037;-87
2023/07/08 00:02:42;;;;;;;7.00;2.70;;;;;;;19.98;61.54;101449.88;4980238;28;20137;-87
2023/07/08 00:05:10;;;;;;;5.03;2.45;;;;;;;19.94;61.89;101445.16;4997550;28;20061;-87
2023/07/08 00:07:36;;;;;;;4.90;2.80;;;;;;;19.91;62.30;101438.25;4997608;28;20052;-87
2023/07/08 00:10:09;;;;;;;6.05;2.80;;;;;;;19.89;61.87;101432.19;4996229;28;20026;-87
2023/07/08 00:12:34;;;;;;;4.28;2.88;;;;;;;19.87;61.98;101444.56;4979642;28;20113;-86
2023/07/08 00:15:00;;;;;;;5.07;2.90;;;;;;;19.82;62.15;101444.53;4995867;28;20077;-87
2023/07/08 00:17:25;;;;;;;6.38;3.22;;;;;;;19.77;62.13;101440.59;4996088;28;20489;-87
2023/07/08 00:19:54;;;;;;;4.10;3.00;;;;;;;19.73;62.77;101433.97;4996030;28;20062;-86
2023/07/08 00:22:19;;;;;;;4.35;3.10;;;;;;;19.66;64.07;101433.34;4964079;28;20042;-86
2023/07/08 00:24:44;;;;;;;5.00;2.93;;;;;;;19.65;63.84;101434.47;4979597;28;20034;-86
2023/07/08 00:27:14;;;;;;;4.60;2.80;;;;;;;19.62;64.03;101429.44;4963970;28;20026;-86
2023/07/08 00:29:40;;;;;;;5.03;3.25;;;;;;;19.56;64.05;101423.09;4979360;28;20121;-86
2023/07/08 00:32:11;;;;;;;5.90;3.33;;;;;;;19.52;64.11;101423.88;4995805;28;20439;-86
2023/07/08 00:34:36;;;;;;;5.47;3.08;;;;;;;19.51;64.52;101427.72;4994836;28;20034;-87
2023/07/08 00:37:04;;;;;;;5.57;3.03;;;;;;;19.46;64.67;101428.50;4963445;28;20533;-86
2023/07/08 00:39:30;;;;;;;7.07;3.63;;;;;;;19.42;64.74;101419.94;4980276;28;20481;-86
2023/07/08 00:41:58;;;;;;;7.57;3.47;;;;;;;19.39;65.54;101423.19;4963288;28;20037;-86
2023/07/08 00:44:23;;;;;;;5.85;3.10;;;;;;;19.34;66.07;101412.16;4995547;28;20037;-86
2023/07/08 00:47:01;;;;;;;5.03;3.23;;;;;;;19.32;65.49;101419.00;4996087;28;20390;-86
2023/07/08 00:49:42;;;;;;;4.10;3.08;;;;;;;19.29;65.43;101417.59;4979356;28;20117;-86
2023/07/08 00:52:28;;;;;;;7.32;3.40;;;;;;;19.24;65.59;101409.31;4996810;28;20069;-86
2023/07/08 00:54:57;;;;;;;4.82;3.25;;;;;;;19.19;66.23;101409.25;4996724;28;20537;-87
2023/07/08 00:57:30;;;;;;;5.45;3.53;;;;;;;19.16;67.71;101409.78;4995018;28;20030;-87
2023/07/08 01:00:15;;;;;;;5.47;3.60;;;;;;;19.13;67.21;101413.03;4995550;28;20100;-86
2023/07/08 01:02:57;;;;;;;5.03;3.40;;;;;;;19.11;67.26;101408.63;4979258;28;20456;-86
2023/07/08 01:05:27;;;;;;;5.20;3.67;;;;;;;19.05;67.63;101411.59;4978702;28;20034;-87
2023/07/08 01:07:58;;;;;;;5.35;3.60;;;;;;;18.99;67.62;101413.44;4994761;28;20048;-86
2023/07/08 01:10:33;;;;;;;6.38;3.53;;;;;;;18.92;67.52;101415.56;4979107;28;20489;-86
2023/07/08 01:13:03;;;;;;;6.70;3.80;;;;;;;18.89;68.92;101408.66;4996145;28;20084;-86
2023/07/08 01:15:38;;;;;;;5.10;3.53;;;;;;;18.83;68.64;101414.34;4995238;28;20022;-86
2023/07/08 01:18:03;;;;;;;5.70;3.35;;;;;;;18.80;69.93;101410.19;4979098;28;20459;-87
2023/07/08 01:20:29;;;;;;;7.87;3.53;;;;;;;18.76;69.58;101414.53;4962746;28;20042;-87
2023/07/08 01:22:54;;;;;;;3.88;3.03;;;;;;;18.72;69.51;101410.63;4979041;28;20125;-86
2023/07/08 01:25:21;;;;;;;5.00;3.40;;;;;;;18.71;69.55;101417.22;4962682;28;20478;-87
2023/07/08 01:27:49;;;;;;;6.30;3.50;;;;;;;18.69;69.57;101411.13;4995575;28;20034;-87
2023/07/08 01:30:16;;;;;;;5.93;3.42;;;;;;;18.65;70.06;101405.34;4978253;28;20031;-87
2023/07/08 01:32:48;;;;;;;4.67;2.93;;;;;;;18.62;69.60;101416.03;4962695;28;20471;-86
2023/07/08 01:35:13;;;;;;;4.38;2.95;;;;;;;18.57;69.45;101405.78;4995613;28;20031;-87
2023/07/08 01:37:51;;;;;;;5.65;3.20;;;;;;;18.52;69.59;101398.28;4994946;28;20034;-87
2023/07/08 01:40:25;;;;;;;4.87;3.23;;;;;;;18.51;70.04;101404.91;4994846;28;20117;-86
2023/07/08 01:42:51;;;;;;;5.47;3.40;;;;;;;18.45;70.32;101403.16;4994768;28;20501;-87
2023/07/08 01:45:19;;;;;;;4.68;3.00;;;;;;;18.43;70.68;101402.59;4961851;28;20043;-86
2023/07/08 01:47:59;;;;;;;6.95;3.10;;;;;;;18.40;70.74;101405.84;4977650;28;20038;-86
2023/07/08 01:50:27;;;;;;;7.15;3.40;;;;;;;18.39;70.97;101413.25;4995396;28;20037;-86
2023/07/08 01:52:56;;;;;;;7.80;3.30;;;;;;;18.38;71.06;101403.34;4978904;28;20037;-86
2023/07/08 01:55:24;;;;;;;6.15;2.90;;;;;;;18.34;71.44;101390.38;4978329;28;20026;-86
2023/07/08 01:57:53;;;;;;;9.60;3.13;;;;;;;18.33;70.89;101396.94;4978308;28;20026;-86
2023/07/08 02:00:19;;;;;;;4.78;3.13;;;;;;;18.28;71.43;101386.72;4996026;28;20034;-86
2023/07/08 02:02:45;;;;;;;7.50;3.35;;;;;;;18.28;71.33;101385.88;4977891;28;20042;-86
2023/07/08 02:05:10;;;;;;;8.03;3.03;;;;;;;18.22;70.64;101383.06;4993984;28;20032;-86
2023/07/08 02:07:35;;;;;;;5.10;3.27;;;;;;;18.19;71.63;101382.78;4977672;28;20502;-86
2023/07/08 02:10:01;;;;;;;7.10;2.90;;;;;;;18.17;71.30;101380.28;4994929;28;20034;-86
2023/07/08 02:12:26;;;;;;;4.95;3.20;;;;;;;18.18;71.08;101381.09;4993952;28;20058;-86
2023/07/08 02:14:52;;;;;;;5.20;3.00;;;;;;;18.15;70.85;101378.84;4993615;28;20037;-86
2023/07/08 02:17:17;;;;;;;5.77;2.80;;;;;;;18.15;71.42;101376.13;4961984;28;20042;-86
2023/07/08 02:19:43;;;;;;;6.10;3.10;;;;;;;18.12;71.48;101371.13;4945272;28;20061;-86
2023/07/08 02:22:09;;;;;;;4.47;2.90;;;;;;;18.09;71.30;101372.47;4961521;28;20030;-86
2023/07/08 02:24:35;;;;;;;8.07;3.45;;;;;;;18.04;72.11;101370.47;4961838;28;20121;-86
2023/07/08 02:27:01;;;;;;;5.83;3.00;;;;;;;18.02;72.38;101366.31;4993734;28;20030;-86
2023/07/08 02:29:26;;;;;;;4.40;3.30;;;;;;;17.98;72.56;101362.41;4977911;28;20475;-86
2023/07/08 02:31:52;;;;;;;4.63;3.37;;;;;;;17.95;73.17;101355.53;4946240;28;20042;-86
2023/07/08 02:34:17;;;;;;;5.17;3.33;;;;;;;17.93;73.04;101362.34;4977318;28;20467;-87
2023/07/08 02:36:43;;;;;;;6.68;3.10;;;;;;;17.92;73.25;101349.69;4977297;28;20026;-86
2023/07/08 02:39:09;;;;;;;11.05;3.20;;;;;;;17.88;74.15;101343.88;4976989;28;20031;-86
2023/07/08 02:41:35;;;;;;;6.63;3.53;;;;;;;17.87;74.20;101342.19;4977205;28;20042;-86
2023/07/08 02:44:00;;;;;;;4.82;3.55;;;;;;;17.78;74.21;101339.03;4994678;28;20030;-87
2023/07/08 02:46:29;;;;;;;7.50;3.60;;;;;;;17.77;74.48;101342.03;4961463;28;20475;-86
2023/07/08 02:48:54;;;;;;;6.82;3.88;;;;;;;17.73;75.73;101346.38;4993359;28;20080;-86
2023/07/08 02:51:19;;;;;;;10.13;4.20;;;;;;;17.73;75.29;101351.84;4977051;28;20399;-86
2023/07/08 02:53:45;;;;;;;8.23;3.63;;;;;;;17.71;76.21;101352.09;4961078;28;20113;-86
2023/07/08 02:56:10;;;;;;;8.73;3.97;;;;;;;17.71;75.38;101350.19;4961110;28;20463;-87
2023/07/08 02:58:36;;;;;;;8.63;4.30;;;;;;;17.73;75.38;101354.59;4976749;28;20030;-86
2023/07/08 03:01:06;;;;;;;7.63;4.43;;;;;;;17.70;75.74;101364.16;4976914;28;20023;-86
2023/07/08 03:03:31;;;;;;;9.65;4.55;;;;;;;17.66;75.80;101365.75;4961486;28;20030;-86
2023/07/08 03:05:58;;;;;;;9.73;4.60;;;;;;;17.64;76.03;101374.25;4993993;28;20034;-87
2023/07/08 03:08:25;;;;;;;9.02;4.40;;;;;;;17.62;76.86;101370.09;4976665;28;20053;-87
2023/07/08 03:10:58;;;;;;;9.63;4.50;;;;;;;17.57;76.20;101368.09;4977198;28;20077;-86
2023/07/08 03:13:23;;;;;;;9.40;4.75;;;;;;;17.56;76.43;101371.91;4993288;28;20030;-86
2023/07/08 03:15:50;;;;;;;9.27;4.47;;;;;;;17.53;75.68;101367.75;4944514;28;20451;-86
2023/07/08 03:18:15;;;;;;;8.45;4.43;;;;;;;17.50;76.40;101370.97;4961084;28;20080;-86
2023/07/08 03:20:44;;;;;;;7.30;4.43;;;;;;;17.50;76.70;101373.72;4976492;28;20034;-86
2023/07/08 03:23:11;;;;;;;13.02;4.60;;;;;;;17.46;76.53;101366.25;4994199;28;20026;-86
2023/07/08 03:25:37;;;;;;;7.03;4.18;;;;;;;17.47;76.91;101373.41;4977413;28;20468;-86
2023/07/08 03:28:05;;;;;;;10.37;4.23;;;;;;;17.45;77.50;101365.44;4993888;28;20023;-86
2023/07/08 03:30:32;;;;;;;5.97;4.03;;;;;;;17.46;76.69;101371.72;4994040;28;20128;-86
2023/07/08 03:33:00;;;;;;;8.52;4.03;;;;;;;17.41;76.19;101372.47;4977498;28;20177;-86
2023/07/08 03:35:26;;;;;;;8.02;4.25;;;;;;;17.43;77.20;101369.50;4976458;28;20038;-86
2023/07/08 03:37:52;;;;;;;6.20;4.00;;;;;;;17.42;77.04;101373.31;4976285;28;20026;-86
2023/07/08 03:40:18;;;;;;;6.95;4.25;;;;;;;17.42;77.28;101371.41;4976414;28;20034;-86
2023/07/08 03:42:43;;;;;;;5.83;3.70;;;;;;;17.42;77.23;101378.78;4976338;28;20089;-86
2023/07/08 03:45:09;;;;;;;7.63;4.10;;;;;;;17.40;77.73;101379.03;4992717;28;20041;-87
2023/07/08 03:47:34;;;;;;;6.37;3.80;;;;;;;17.38;78.08;101374.88;4992734;28;20046;-86
2023/07/08 03:50:00;;;;;;;6.13;3.85;;;;;;;17.34;78.46;101377.31;4960454;28;20038;-86
2023/07/08 03:52:25;;;;;;;5.70;4.13;;;;;;;17.33;79.01;101390.19;4976200;28;20080;-86
2023/07/08 03:54:51;;;;;;;8.47;3.63;;;;;;;17.33;78.96;101387.44;4992376;28;20031;-86
2023/07/08 03:57:18;;;;;;;6.33;3.77;;;;;;;17.35;78.64;101399.00;4992705;28;20494;-86
2023/07/08 03:59:44;;;;;;;6.23;3.80;;;;;;;17.33;79.12;101394.81;4960676;28;20313;-86
2023/07/08 04:02:11;;;;;;;5.97;3.92;;;;;;;17.35;78.17;101388.03;4992301;28;20133;-87
2023/07/08 04:04:39;;;;;;;8.90;4.00;;;;;;;17.36;79.05;101392.44;4992272;28;20514;-86
2023/07/08 04:07:05;;;;;;;6.18;4.20;;;;;;;17.40;78.29;101398.25;4976085;28;20046;-86
2023/07/08 04:09:32;;;;;;;7.90;3.90;;;;;;;17.38;78.33;101391.34;4962304;28;20046;-86
2023/07/08 04:11:58;;;;;;;7.43;3.83;;;;;;;17.41;78.93;101391.69;4996658;28;20372;-86
2023/07/08 04:14:23;;;;;;;5.97;4.18;;;;;;;17.39;78.48;101391.13;4979778;28;20394;-86
2023/07/08 04:16:57;;;;;;;6.40;3.90;;;;;;;17.46;79.06;101389.00;4979641;28;20065;-86
2023/07/08 04:19:23;;;;;;;4.93;3.90;;;;;;;17.50;78.28;101392.94;4996657;28;20031;-86
2023/07/08 04:21:48;;;;;;;5.05;3.78;;;;;;;17.52;78.67;101392.69;4996042;28;20027;-86
2023/07/08 04:24:16;;;;;;;5.83;3.80;;;;;;;17.54;78.32;101391.38;4996009;28;20042;-86
2023/07/08 04:26:42;;;;;;;4.93;3.70;;;;;;;17.56;78.26;101399.34;4996400;28;20034;-86
2023/07/08 04:29:13;;;;;;;6.05;3.70;;;;;;;17.61;79.51;101396.69;4995534;28;20403;-86
2023/07/08 04:31:38;;;;;;;5.55;3.70;;;;;;;17.63;78.06;101388.22;4979747;28;20426;-86
2023/07/08 04:34:06;;;;;;;6.00;3.83;;;;;;;17.63;78.11;101386.28;4995801;28;20466;-86
2023/07/08 04:36:32;;;;;;;5.35;3.95;;;;;;;17.66;78.19;101391.28;4996941;28;20108;-86
2023/07/08 04:38:58;;;;;;;6.27;3.90;;;;;;;17.67;77.92;101383.88;4979163;28;20030;-87
2023/07/08 04:41:25;;;;;;;9.40;3.90;;;;;;;17.72;78.03;101389.44;4995387;28;20537;-86
2023/07/08 04:43:53;;;;;;;4.63;3.88;;;;;;;17.75;77.29;101382.63;4995609;28;20041;-86
2023/07/08 04:46:30;;;;;;;5.88;4.00;;;;;;;17.79;76.95;101384.63;4979389;28;20034;-86
2023/07/08 04:48:56;;;;;;;5.03;4.10;;;;;;;17.82;77.92;101381.38;4979208;28;20454;-87
2023/07/08 04:51:21;;;;;;;5.43;3.70;;;;;;;17.88;77.81;101385.03;4979426;28;20060;-86
2023/07/08 04:53:47;;;;;;;6.87;4.00;;;;;;;17.94;77.67;101386.81;4995453;28;20101;-86
2023/07/08 04:56:15;;;;;;;5.93;3.80;;;;;;;17.97;76.78;101374.50;4962906;28;20034;-86
2023/07/08 04:58:41;;;;;;;8.35;4.07;;;;;;;18.01;76.82;101383.88;4963944;28;20371;-86
2023/07/08 05:01:06;;;;;;;5.97;4.00;;;;;;;18.03;76.34;101376.22;4996890;28;20033;-86
2023/07/08 05:03:32;;;;;;;5.93;3.60;;;;;;;18.10;76.21;101382.38;4978767;28;20321;-86
2023/07/08 05:05:57;;;;;;;11.10;4.07;;;;;;;18.14;76.35;101385.44;4963098;28;20124;-86
2023/07/08 05:08:22;;;;;;;8.10;4.23;;;;;;;18.21;75.79;101389.66;4978756;28;20494;-87
2023/07/08 05:10:48;;;;;;;5.90;4.03;;;;;;;18.26;75.80;101391.63;4994812;28;20034;-86
2023/07/08 05:13:13;;;;;;;6.07;4.00;;;;;;;18.31;75.43;101386.22;4994829;28;20479;-87
2023/07/08 05:15:42;;;;;;;6.57;3.83;;;;;;;18.34;75.74;101387.63;4995365;28;20026;-86
2023/07/08 05:18:07;;;;;;;6.90;3.65;;;;;;;18.36;75.37;101386.28;4979293;28;20034;-86
2023/07/08 05:20:34;;;;;;;6.73;3.97;;;;;;;18.37;75.42;101381.63;4995749;28;20088;-86
2023/07/08 05:23:00;;;;;;;8.63;3.80;;;;;;;18.40;75.69;101389.34;4962509;28;20035;-86
2023/07/08 05:25:27;;;;;;;5.90;4.00;;;;;;;18.45;75.54;101386.66;4994585;28;20474;-86
2023/07/08 05:27:53;;;;;;;8.13;4.32;;;;;;;18.51;75.43;101390.31;4995236;28;20085;-94
2023/07/08 05:30:28;;;;;;;;;;;;;;;;;;;;;
2023/07/08 05:32:56;;;;;;;6.47;4.20;;;;;;;18.64;74.99;101387.16;4997894;28;20031;-95
2023/07/08 05:35:25;;;;;;;7.70;4.03;;;;;;;18.68;75.92;101369.09;4995904;28;20129;-94
2023/07/08 05:37:53;;;;;;;8.07;4.32;;;;;;;18.75;74.52;101374.41;4996056;28;20508;-95
2023/07/08 05:40:19;;;;;;;5.00;4.27;;;;;;;18.83;75.10;101373.94;4979821;28;20026;-93
2023/07/08 05:42:44;;;;;;;6.63;4.75;;;;;;;18.86;74.23;101378.13;4996562;28;20042;-95
2023/07/08 05:45:15;;;;;;;7.43;4.43;;;;;;;18.95;73.64;101378.47;4997389;28;20034;-94
2023/07/08 05:47:41;;;;;;;6.65;4.90;;;;;;;19.01;73.51;101371.94;4982264;28;20128;-95
2023/07/08 05:50:07;;;;;;;5.67;4.37;;;;;;;19.08;73.44;101376.13;4980237;28;20390;-94
2023/07/08 05:52:32;;;;;;;7.75;5.32;;;;;;;19.16;73.01;101374.84;4963348;28;20475;-95
2023/07/08 05:55:00;;;;;;;10.90;4.80;;;;;;;19.22;73.11;101376.56;4997387;28;20053;-92
2023/07/08 05:57:28;;;;;;;5.78;4.57;;;;;;;19.31;72.42;101374.19;4995021;28;20466;-92
2023/07/08 05:59:54;;;;;;;5.82;4.57;;;;;;;19.41;72.05;101387.16;4963805;28;20065;-92
2023/07/08 06:02:21;;;;;;;9.00;4.70;;;;;;;19.50;71.96;101380.09;4996398;28;20026;-93
2023/07/08 06:04:47;;;;;;;10.05;4.90;;;;;;;19.59;71.97;101377.69;4995421;28;20363;-95
2023/07/08 06:07:20;;;;;;;8.07;4.43;;;;;;;19.66;70.99;101381.03;4996133;28;20065;-95
2023/07/08 06:09:45;;;;;;;12.18;5.00;;;;;;;19.74;69.91;101382.50;4995136;28;20061;-92
2023/07/08 06:12:13;;;;;;;7.00;4.87;;;;;;;19.84;69.23;101385.34;4962545;28;20037;-92
2023/07/08 06:14:39;;;;;;;9.00;4.43;;;;;;;19.91;69.04;101391.44;4947453;28;20039;-93
2023/07/08 06:17:04;;;;;;;5.93;4.15;;;;;;;20.04;69.02;101390.16;4995494;28;20046;-94
2023/07/08 06:19:30;;;;;;;7.03;4.57;;;;;;;20.14;67.60;101395.72;4996242;28;20406;-94
2023/07/08 06:21:55;;;;;;;10.10;4.30;;;;;;;20.23;67.13;101390.53;4997353;28;20072;-96
2023/07/08 06:24:21;;;;;;;7.03;4.40;;;;;;;20.33;66.20;101392.53;4996487;28;20680;-96
2023/07/08 06:26:52;;;;;;;8.30;4.60;;;;;;;20.41;65.93;101389.25;4994788;28;20022;-95
2023/07/08 06:29:22;;;;;;;7.03;4.50;;;;;;;20.47;66.08;101390.91;4979334;28;20372;-94
2023/07/08 06:31:48;;;;;;;9.38;4.85;;;;;;;20.52;65.56;101395.63;4978403;28;20034;-94
2023/07/08 06:34:13;;;;;;;7.67;4.70;;;;;;;20.58;65.73;101393.72;4994514;28;20528;-88
2023/07/08 06:36:39;;;;;;;8.87;4.80;;;;;;;20.62;65.98;101390.16;4993032;28;20037;-88
2023/07/08 06:39:07;;;;;;;8.35;4.53;;;;;;;20.67;65.00;101400.44;4995293;28;20031;-88
2023/07/08 06:41:32;;;;;;;9.03;4.90;;;;;;;20.75;64.79;101390.78;4993466;28;20101;-87
2023/07/08 06:43:58;;;;;;;10.38;4.45;;;;;;;20.82;64.33;101383.09;4977131;28;20430;-87
2023/07/08 06:46:24;;;;;;;11.73;4.47;;;;;;;20.90;64.53;101396.34;4993328;28;20041;-87
2023/07/08 06:48:49;;;;;;;8.83;5.07;;;;;;;20.97;64.27;101396.09;4961537;28;20097;-87
2023/07/08 06:51:15;;;;;;;7.87;4.67;;;;;;;21.01;64.07;101394.47;4944745;28;20030;-88
2023/07/08 06:53:40;;;;;;;13.75;5.00;;;;;;;21.08;64.16;101394.19;4993227;28;20034;-87
2023/07/08 06:56:06;;;;;;;7.73;5.20;;;;;;;21.14;64.05;101390.31;4945109;28;20045;-87
2023/07/08 06:58:31;;;;;;;8.60;4.73;;;;;;;21.24;63.10;101390.34;4993378;28;20032;-87
2023/07/08 07:00:59;;;;;;;9.55;4.82;;;;;;;21.32;62.95;101389.00;4994339;28;20034;-87
2023/07/08 07:03:24;;;;;;;8.47;4.63;;;;;;;21.38;62.18;101388.69;4977168;28;20551;-88
2023/07/08 07:05:50;;;;;;;9.65;4.72;;;;;;;21.47;62.17;101382.66;4992677;28;20120;-87
2023/07/08 07:08:15;;;;;;;11.27;4.80;;;;;;;21.55;62.34;101384.88;4994270;28;20054;-87
2023/07/08 07:10:42;;;;;;;12.03;4.70;;;;;;;21.61;62.18;101388.47;4992869;28;20459;-87
2023/07/08 07:13:07;;;;;;;12.13;5.30;;;;;;;21.66;62.42;101385.72;4994398;28;20038;-87
2023/07/08 07:15:32;;;;;;;8.30;4.80;;;;;;;21.72;61.70;101382.66;4977030;28;20041;-87
2023/07/08 07:18:01;;;;;;;8.53;4.97;;;;;;;21.79;61.70;101382.38;4976412;28;20038;-87
2023/07/08 07:20:26;;;;;;;6.70;4.90;;;;;;;21.86;61.70;101385.66;4994141;28;20482;-87
2023/07/08 07:22:52;;;;;;;9.88;4.78;;;;;;;21.94;61.14;101383.44;4960753;28;20034;-87
2023/07/08 07:25:18;;;;;;;8.33;5.00;;;;;;;22.01;60.70;101382.06;4976876;28;20466;-87
2023/07/08 07:27:43;;;;;;;9.93;4.85;;;;;;;22.08;60.00;101385.34;4992554;28;20031;-87
2023/07/08 07:30:12;;;;;;;7.77;5.00;;;;;;;22.16;58.88;101383.13;4960537;28;20030;-87
2023/07/08 07:32:38;;;;;;;8.55;4.68;;;;;;;22.23;58.51;101381.72;4993209;28;20034;-87
2023/07/08 07:35:04;;;;;;;7.53;5.03;;;;;;;22.31;58.48;101383.09;4993606;28;20393;-87
2023/07/08 07:37:30;;;;;;;9.80;4.63;;;;;;;22.38;58.59;101386.41;4976532;28;20471;-87
2023/07/08 07:39:55;;;;;;;10.80;5.00;;;;;;;22.45;57.20;101382.50;4993975;28;20036;-88
2023/07/08 07:42:21;;;;;;;7.30;5.20;;;;;;;22.53;57.18;101388.28;4993653;28;20034;-87
2023/07/08 07:44:47;;;;;;;9.97;5.30;;;;;;;22.62;56.86;101384.91;4977476;28;20046;-87
2023/07/08 07:47:13;;;;;;;10.50;5.17;;;;;;;22.69;56.82;101386.28;4980073;28;20035;-87
2023/07/08 07:49:38;;;;;;;13.15;5.28;;;;;;;22.82;56.00;101387.56;4980761;28;20034;-96
2023/07/08 07:52:15;;;;;;;9.32;5.18;;;;;;;22.90;56.29;101378.69;4982106;28;20031;-96
2023/07/08 07:54:46;;;;;;;7.95;4.90;;;;;;;22.99;56.63;101375.28;4983601;28;20030;-95
2023/07/08 07:57:19;;;;;;;10.67;5.47;;;;;;;23.09;54.80;101375.22;4998837;28;20427;-93
2023/07/08 07:59:48;;;;;;;8.65;5.15;;;;;;;23.20;55.67;101379.63;4984340;28;20030;-96
2023/07/08 08:02:18;;;;;;;8.35;5.15;;;;;;;23.29;54.80;101379.84;4998986;28;20034;-96
2023/07/08 08:04:43;;;;;;;10.25;5.35;;;;;;;23.39;54.22;101370.63;4981297;28;20023;-96
2023/07/08 08:07:09;;;;;;;13.00;5.17;;;;;;;23.47;53.68;101370.00;4998469;28;20438;-96
2023/07/08 08:09:49;;;;;;;8.77;5.15;;;;;;;23.55;54.36;101382.38;4997825;28;20069;-96
2023/07/08 08:12:17;;;;;;;8.45;5.60;;;;;;;23.62;54.43;101374.56;4965045;28;20041;-96
2023/07/08 08:14:45;;;;;;;7.97;5.40;;;;;;;23.72;54.06;101380.00;4980968;28;20041;-96
2023/07/08 08:17:14;;;;;;;10.93;5.17;;;;;;;23.80;54.40;101390.47;4981595;28;20475;-96
2023/07/08 08:19:47;;;;;;;11.10;5.70;;;;;;;23.93;54.40;101402.00;4998240;28;20101;-96
2023/07/08 08:22:22;;;;;;;9.18;5.10;;;;;;;24.03;54.75;101396.38;4981890;28;20392;-96
2023/07/08 08:24:49;;;;;;;8.43;5.30;;;;;;;24.10;53.37;101387.72;4965884;28;20479;-96
2023/07/08 08:27:17;;;;;;;6.95;5.30;;;;;;;24.17;54.00;101391.78;4980859;28;20387;-96
2023/07/08 08:29:43;;;;;;;7.03;4.83;;;;;;;24.29;52.93;101401.63;4997389;28;20033;-96
2023/07/08 08:32:09;;;;;;;9.63;5.75;;;;;;;24.37;52.53;101402.94;4996937;28;20030;-96
2023/07/08 08:34:34;;;;;;;10.03;5.77;;;;;;;24.51;50.99;101401.09;4980816;28;20487;-96
2023/07/08 08:37:06;;;;;;;12.93;6.32;;;;;;;24.60;50.69;101404.06;4996695;28;20092;-96
2023/07/08 08:39:31;;;;;;;11.80;5.73;;;;;;;24.69;51.14;101403.09;4981169;28;20030;-96
2023/07/08 08:42:02;;;;;;;8.82;5.38;;;;;;;24.83;50.17;101408.75;4980562;28;20022;-96
2023/07/08 08:44:34;;;;;;;9.63;6.10;;;;;;;24.96;49.53;101418.28;4965309;28;20036;-95
2023/07/08 08:47:24;;;;;;;;;;;;;;;;;;;;;
2023/07/08 08:50:12;;;;;;;11.57;6.00;;;;;;;25.23;49.25;101414.00;4998861;28;20447;-96
2023/07/08 08:52:47;;;;;;;13.90;6.20;;;;;;;25.32;48.79;101406.69;4980608;28;20491;-96
2023/07/08 08:55:31;;;;;;;10.63;5.65;;;;;;;25.42;48.22;101414.00;4996390;28;20097;-96
2023/07/08 08:58:11;;;;;;;10.05;6.00;;;;;;;25.55;47.57;101410.44;4996768;28;20045;-96
2023/07/08 09:01:01;;;;;;;10.27;6.50;;;;;;;25.66;47.94;101416.69;4997660;28;20033;-96
2023/07/08 09:03:54;;;;;;;11.52;6.32;;;;;;;25.81;45.73;101418.38;4980429;28;20050;-96
2023/07/08 09:06:33;;;;;;;11.07;6.38;;;;;;;25.94;45.19;101421.47;4980467;28;20030;-91
2023/07/08 09:09:36;;;;;;;;;;;;;;;;;;;;;
2023/07/08 09:13:07;;;;;;;11.82;6.38;;;;;;;26.23;45.96;101415.66;4998330;28;20129;-96
2023/07/08 09:15:40;;;;;;;;;;;;;;;;;;;;;
2023/07/08 09:18:49;;;;;;;;;;;;;;;;;;;;;
2023/07/08 09:21:34;;;;;;;11.07;6.85;;;;;;;26.76;43.22;101397.63;5003367;28;20129;-96
2023/07/08 09:24:27;;;;;;;12.52;6.88;;;;;;;26.91;42.48;101396.47;5000406;28;20475;-93
2023/07/08 09:27:05;;;;;;;10.20;6.82;;;;;;;27.08;42.28;101388.28;4995803;28;20125;-93
2023/07/08 09:29:38;;;;;;;12.53;6.83;;;;;;;27.25;41.64;101400.69;4963748;28;20130;-94
2023/07/08 09:32:38;;;;;;;9.15;5.93;;;;;;;27.43;42.65;101399.72;4980535;28;20034;-94
2023/07/08 09:35:06;;;;;;;15.35;6.90;;;;;;;27.59;41.28;101397.38;4979915;28;20049;-92
2023/07/08 09:38:16;;;;;;;;;;;;;;;;;;;;;
2023/07/08 09:40:53;;;;;;;8.73;6.38;;;;;;;27.88;41.11;101398.84;4997133;28;20038;-93
2023/07/08 09:43:30;;;;;;;14.20;6.53;;;;;;;28.02;39.80;101382.03;4998987;28;20030;-95
2023/07/08 09:46:04;;;;;;;10.30;6.55;;;;;;;28.12;40.91;101376.16;4996729;28;20034;-96
2023/07/08 09:48:37;;;;;;;13.30;6.43;;;;;;;28.27;40.17;101383.31;4996708;28;20029;-95
2023/07/08 09:51:08;;;;;;;8.20;6.32;;;;;;;28.42;40.19;101376.44;4978678;28;20478;-91
2023/07/08 09:53:38;;;;;;;8.77;6.22;;;;;;;28.51;38.42;101379.25;4997000;28;20033;-94
2023/07/08 09:56:08;;;;;;;9.80;6.40;;;;;;;28.69;38.04;101375.38;4996304;28;20038;-94
2023/07/08 09:58:47;;;;;;;11.82;5.80;;;;;;;28.85;39.10;101388.88;4979463;28;20030;-94
2023/07/08 10:01:34;;;;;;;8.80;6.30;;;;;;;29.03;39.22;101379.34;4996354;28;20038;-95
2023/07/08 10:04:19;;;;;;;7.72;5.82;;;;;;;29.19;37.77;101379.66;4979394;28;20038;-93
2023/07/08 10:06:52;;;;;;;12.52;6.28;;;;;;;29.34;36.72;101383.97;4994559;28;20124;-95
2023/07/08 10:09:30;;;;;;;10.37;6.50;;;;;;;29.47;36.79;101382.13;4979575;28;20039;-94
2023/07/08 10:12:01;;;;;;;10.63;6.45;;;;;;;29.57;37.17;101381.78;4995432;28;20033;-94
2023/07/08 10:14:41;;;;;;;9.85;6.10;;;;;;;29.78;36.92;101381.06;4979081;28;20030;-94
2023/07/08 10:17:15;;;;;;;9.95;6.45;;;;;;;29.94;37.08;101378.56;4995017;28;20489;-94
2023/07/08 10:19:46;;;;;;;10.13;6.10;;;;;;;30.16;34.47;101387.84;4978838;28;20278;-95
2023/07/08 10:23:05;;;;;;;9.10;6.50;;;;;;;30.23;36.05;101382.56;4995054;28;20062;-95
2023/07/08 10:25:52;;;;;;;15.45;6.30;;;;;;;30.38;36.22;101384.78;4917323;29;20036;-95
2023/07/08 10:28:51;;;;;;;9.23;6.13;;;;;;;30.61;36.00;101382.53;4916971;29;20040;-95
2023/07/08 10:32:01;;;;;;;8.05;5.80;;;;;;;30.75;35.59;101378.66;4973386;28;20038;-94
2023/07/08 10:35:07;;;;;;;9.75;6.60;;;;;;;31.01;35.14;101377.66;4978605;28;20034;-94
2023/07/08 10:37:53;;;;;;;10.37;6.27;;;;;;;31.21;33.47;101381.59;4978116;28;20064;-87
2023/07/08 10:40:22;;;;;;;8.07;6.13;;;;;;;31.42;33.69;101378.78;4994209;28;20032;-88
2023/07/08 10:43:11;;;;;;;12.43;6.82;;;;;;;31.64;33.04;101386.00;4976875;28;20040;-87
2023/07/08 10:46:03;;;;;;;10.00;6.63;;;;;;;31.95;33.71;101387.44;4995172;28;20034;-87
2023/07/08 10:48:44;;;;;;;12.85;6.80;;;;;;;32.27;32.07;101391.34;4994306;28;20121;-87
2023/07/08 10:51:24;;;;;;;8.70;6.77;;;;;;;32.59;31.99;101390.75;4977774;28;20034;-87
2023/07/08 10:54:20;;;;;;;11.30;6.95;;;;;;;32.83;31.80;101401.94;4994799;28;20023;-87
2023/07/08 10:57:00;;;;;;;9.13;6.55;;;;;;;32.97;29.97;101392.31;4977796;28;20026;-87
2023/07/08 10:59:48;;;;;;;9.15;6.50;;;;;;;33.16;30.63;101400.09;4977617;28;20582;-87
2023/07/08 11:02:42;;;;;;;16.65;6.90;;;;;;;33.50;30.27;101387.44;4993399;28;20121;-87
2023/07/08 11:05:16;;;;;;;12.93;6.73;;;;;;;33.71;28.85;101383.56;4963048;28;20042;-87
2023/07/08 11:07:52;;;;;;;10.48;6.65;;;;;;;33.88;28.93;101385.22;4992814;28;20057;-87
2023/07/08 11:10:26;;;;;;;10.32;6.95;;;;;;;34.11;28.80;101387.44;4977636;28;20057;-87
2023/07/08 11:13:01;;;;;;;9.85;6.65;;;;;;;34.45;28.11;101383.03;4992975;28;20133;-87
2023/07/08 11:15:53;;;;;;;7.45;6.45;;;;;;;34.82;27.77;101382.69;4975582;28;20043;-87
2023/07/08 11:18:40;;;;;;;11.90;7.20;;;;;;;35.26;28.00;101385.19;4976345;28;20043;-87
2023/07/08 11:21:08;;;;;;;9.30;6.35;;;;;;;35.81;25.89;101376.59;4976420;28;20093;-87
2023/07/08 11:23:40;;;;;;;9.55;7.00;;;;;;;36.45;25.36;101386.50;4994153;28;20062;-88
2023/07/08 11:26:24;;;;;;;15.00;7.60;;;;;;;38.44;24.66;101379.00;4993853;28;20057;-87
2023/07/08 11:29:02;;;;;;;7.65;6.82;;;;;;;41.34;19.46;101382.41;4976914;28;20026;-87
2023/07/08 11:31:32;;;;;;;10.57;6.70;;;;;;;44.12;17.37;101377.09;4976760;28;20450;-87
2023/07/08 11:34:02;;;;;;;11.02;7.07;;;;;;;45.87;15.39;101381.53;4994019;28;20057;-87
2023/07/08 11:36:47;;;;;;;10.57;6.88;;;;;;;47.63;16.33;101364.06;4993023;28;20120;-87
2023/07/08 11:39:42;;;;;;;10.85;6.82;;;;;;;49.23;14.94;101363.56;4976482;28;20035;-87
2023/07/08 11:42:19;;;;;;;12.27;7.63;;;;;;;50.32;14.06;101351.09;4993765;28;20039;-87
2023/07/08 11:44:52;;;;;;;13.07;8.13;;;;;;;50.94;12.29;101346.13;4992233;28;20042;-87
2023/07/08 11:47:24;;;;;;;10.73;8.20;;;;;;;51.68;11.71;101351.53;4993138;28;20121;-87
2023/07/08 11:49:52;;;;;;;9.98;8.40;;;;;;;52.17;11.28;101332.84;4992747;28;20030;-88